createdAt,value
2019-03-06T00:02:03.231Z,2.75
2019-03-06T00:07:07.499Z,3.80
2019-03-06T00:12:11.653Z,3.00
2019-03-06T00:17:15.929Z,3.75
2019-03-06T00:22:19.952Z,3.20
2019-03-06T00:27:24.127Z,3.00
2019-03-06T00:32:28.178Z,3.00
2019-03-06T00:37:32.584Z,2.25
2019-03-06T00:42:42.853Z,2.00
2019-03-06T00:47:46.966Z,2.00
2019-03-06T00:52:51.161Z,3.40
2019-03-06T00:57:55.321Z,2.60
2019-03-06T01:02:59.552Z,4.00
2019-03-06T01:08:03.955Z,2.00
2019-03-06T01:13:08.096Z,2.75
2019-03-06T01:18:12.548Z,2.00
2019-03-06T01:23:16.630Z,2.50
2019-03-06T01:28:20.901Z,2.50
2019-03-06T01:33:49.258Z,3.00
2019-03-06T01:39:24.277Z,2.20
2019-03-06T01:44:47.368Z,2.00
2019-03-06T01:49:51.671Z,2.00
2019-03-06T01:54:55.764Z,1.25
2019-03-06T01:59:59.802Z,2.00
2019-03-06T02:05:04.088Z,2.75
2019-03-06T02:10:09.705Z,1.00
2019-03-06T02:15:15.563Z,2.00
2019-03-06T02:20:19.879Z,2.00
2019-03-06T02:25:24.042Z,2.00
2019-03-06T02:30:28.273Z,1.40
2019-03-06T02:35:32.366Z,1.00
2019-03-06T02:40:36.420Z,1.00
2019-03-06T02:45:40.557Z,2.20
2019-03-06T02:50:44.885Z,2.00
2019-03-06T02:55:49.009Z,1.25
2019-03-06T03:01:04.438Z,2.20
2019-03-06T03:06:14.352Z,2.40
2019-03-06T03:11:18.395Z,3.80
2019-03-06T03:16:22.447Z,3.00
2019-03-06T03:21:27.104Z,3.00
2019-03-06T03:26:31.582Z,2.75
2019-03-06T03:31:35.621Z,1.75
2019-03-06T03:36:39.698Z,2.75
2019-03-06T03:41:43.990Z,0.75
2019-03-06T03:46:48.214Z,1.80
2019-03-06T03:51:52.505Z,2.00
2019-03-06T03:56:56.577Z,2.00
2019-03-06T04:02:00.790Z,2.75
2019-03-06T04:07:05.042Z,1.00
2019-03-06T04:12:09.237Z,1.40
2019-03-06T04:17:13.299Z,2.00
2019-03-06T04:22:17.583Z,2.00
2019-03-06T04:27:21.658Z,2.20
2019-03-06T04:32:25.689Z,2.00
2019-03-06T04:37:29.739Z,2.00
2019-03-06T04:42:33.955Z,2.00
2019-03-06T04:47:41.422Z,2.00
2019-03-06T04:52:45.227Z,1.00
2019-03-06T04:57:49.290Z,2.00
2019-03-06T05:02:53.478Z,2.60
2019-03-06T05:07:57.563Z,1.00
2019-03-06T05:13:01.643Z,2.00
2019-03-06T05:18:20.025Z,2.00
2019-03-06T05:23:24.114Z,2.00
2019-03-06T05:28:28.254Z,2.00
2019-03-06T05:33:32.414Z,2.00
2019-03-06T05:38:41.490Z,1.50
2019-03-06T05:43:45.670Z,2.00
2019-03-06T05:48:49.731Z,2.00
2019-03-06T05:53:53.833Z,2.33
2019-03-06T05:58:57.920Z,1.00
2019-03-06T06:04:02.088Z,1.25
2019-03-06T06:09:07.341Z,0.00
2019-03-06T06:14:11.598Z,2.00
2019-03-06T06:19:15.677Z,2.00
2019-03-06T06:24:22.639Z,1.00
2019-03-06T06:29:26.765Z,2.00
2019-03-06T06:34:30.948Z,1.40
2019-03-06T06:39:35.014Z,1.00
2019-03-06T06:44:39.260Z,0.50
2019-03-06T06:49:43.359Z,1.00
2019-03-06T06:54:57.008Z,1.50
2019-03-06T07:01:08.482Z,1.00
2019-03-06T07:06:28.571Z,1.75
2019-03-06T07:11:50.468Z,2.00
2019-03-06T07:17:04.842Z,1.50
2019-03-06T07:22:27.970Z,1.00
2019-03-06T07:27:48.217Z,1.00
2019-03-06T07:32:58.507Z,1.00
2019-03-06T07:38:05.492Z,1.60
2019-03-06T07:43:28.716Z,6.00
2019-03-06T07:49:22.379Z,6.00
2019-03-06T07:54:51.758Z,7.00
2019-03-06T07:59:56.274Z,7.00
2019-03-06T08:05:00.365Z,6.20
2019-03-06T08:10:11.599Z,5.75
2019-03-06T08:15:47.156Z,7.00
2019-03-06T08:21:22.643Z,4.60
2019-03-06T08:26:26.953Z,4.00
2019-03-06T08:31:43.578Z,2.75
2019-03-06T08:36:47.998Z,2.00
2019-03-06T08:41:52.313Z,2.00
2019-03-06T08:47:18.363Z,3.00
2019-03-06T08:52:41.644Z,2.20
2019-03-06T08:58:23.212Z,1.00
2019-03-06T09:03:44.652Z,2.00
2019-03-06T09:09:16.033Z,2.00
2019-03-06T09:14:30.407Z,1.40
2019-03-06T09:19:57.539Z,1.40
2019-03-06T09:25:07.466Z,2.00
2019-03-06T09:30:31.428Z,1.25
2019-03-06T09:41:07.441Z,1.00
2019-03-06T09:46:36.297Z,2.00
2019-03-06T09:52:13.995Z,1.00
2019-03-06T10:03:33.115Z,0.00
2019-03-06T10:09:04.601Z,2.00
2019-03-06T10:14:42.135Z,0.80
2019-03-06T10:20:24.796Z,2.40
2019-03-06T10:25:32.210Z,0.80
2019-03-06T10:30:44.272Z,2.00
2019-03-06T10:36:05.233Z,1.20
2019-03-06T10:41:23.945Z,2.00
2019-03-06T10:51:57.883Z,1.00
2019-03-06T11:03:30.012Z,0.00
2019-03-06T11:08:37.339Z,1.00
2019-03-06T11:13:41.678Z,0.75
2019-03-06T11:18:46.074Z,1.00
2019-03-06T11:23:50.597Z,1.20
2019-03-06T11:28:55.016Z,0.00
2019-03-06T11:33:59.303Z,0.00
2019-03-06T11:39:04.910Z,0.80
2019-03-06T11:44:09.323Z,1.25
2019-03-06T11:49:13.531Z,1.00
2019-03-06T11:54:17.709Z,2.00
2019-03-06T11:59:21.823Z,0.00
2019-03-06T12:04:26.338Z,0.75
2019-03-06T12:09:34.005Z,1.00
2019-03-06T12:14:38.157Z,1.00
2019-03-06T12:19:42.288Z,0.00
2019-03-06T12:24:46.496Z,1.00
2019-03-06T12:29:50.648Z,0.60
2019-03-06T12:34:54.726Z,1.00
2019-03-06T12:39:59.072Z,1.00
2019-03-06T12:45:03.522Z,0.75
2019-03-06T12:50:10.730Z,1.00
2019-03-06T12:55:15.324Z,1.40
2019-03-06T13:00:21.289Z,0.25
2019-03-06T13:05:25.877Z,1.00
2019-03-06T13:10:30.075Z,1.75
2019-03-06T13:15:34.191Z,1.20
2019-03-06T13:20:38.425Z,0.60
2019-03-06T13:25:42.809Z,0.75
2019-03-06T13:30:47.219Z,1.25
2019-03-06T13:35:51.591Z,1.00
2019-03-06T13:40:55.772Z,1.00
2019-03-06T13:45:59.949Z,1.50
2019-03-06T13:51:06.008Z,1.75
2019-03-06T13:56:10.412Z,0.60
2019-03-06T14:01:15.050Z,1.00
2019-03-06T14:06:19.503Z,1.25
2019-03-06T14:11:23.785Z,1.00
2019-03-06T14:16:28.024Z,0.20
2019-03-06T14:21:32.262Z,1.00
2019-03-06T14:26:36.516Z,0.00
2019-03-06T14:31:40.623Z,0.25
2019-03-06T14:36:46.442Z,1.00
2019-03-06T14:41:50.617Z,0.00
2019-03-06T14:46:54.720Z,1.00
2019-03-06T14:52:06.849Z,0.80
2019-03-06T14:57:15.954Z,1.20
2019-03-06T15:02:20.623Z,0.00
2019-03-06T15:07:36.125Z,1.00
2019-03-06T15:12:40.159Z,0.40
2019-03-06T15:17:44.693Z,0.60
2019-03-06T15:28:19.043Z,1.00
2019-03-06T15:33:58.464Z,0.40
2019-03-06T15:45:42.897Z,1.00
2019-03-06T15:50:56.129Z,0.20
2019-03-06T15:55:52.220Z,0.40
2019-03-06T16:00:57.314Z,0.20
2019-03-06T17:09:55.226Z,0.00
2019-03-06T17:15:02.762Z,0.00
2019-03-06T17:20:08.453Z,0.00
2019-03-06T17:25:12.800Z,0.00
2019-03-06T17:30:19.791Z,0.00
2019-03-06T17:35:24.995Z,0.00
2019-03-06T17:46:09.278Z,0.00
2019-03-06T17:51:14.731Z,0.00
2019-03-06T17:56:20.114Z,0.00
2019-03-06T18:01:24.517Z,0.00
2019-03-06T18:06:31.253Z,0.00
2019-03-06T18:11:35.372Z,0.00
2019-03-06T18:16:46.564Z,0.00
2019-03-06T18:21:51.043Z,0.00
2019-03-06T18:26:56.042Z,0.00
2019-03-06T18:32:00.393Z,0.00
2019-03-06T18:37:05.227Z,0.00
2019-03-06T18:42:11.770Z,0.00
2019-03-06T18:47:25.719Z,0.00
2019-03-06T18:52:40.438Z,0.00
2019-03-06T18:57:48.104Z,0.00
2019-03-06T19:02:53.262Z,0.00
2019-03-06T19:08:00.890Z,0.00
2019-03-06T19:13:12.332Z,0.00
2019-03-06T19:18:18.838Z,0.00
2019-03-06T19:29:33.591Z,0.00
2019-03-06T19:35:08.784Z,0.00
2019-03-06T19:40:19.052Z,0.00
2019-03-06T19:45:24.054Z,0.00
2019-03-06T19:50:28.326Z,0.00
2019-03-06T19:55:32.731Z,0.00
2019-03-06T20:00:37.117Z,0.00
2019-03-06T20:05:41.583Z,0.00
2019-03-06T20:10:45.854Z,0.00
2019-03-06T20:15:50.121Z,0.00
2019-03-06T20:20:54.549Z,0.00
2019-03-06T20:25:58.754Z,0.00
2019-03-06T20:31:03.098Z,0.00
2019-03-06T20:36:07.540Z,0.00
2019-03-06T20:41:11.699Z,0.00
2019-03-06T20:46:16.227Z,0.00
2019-03-06T20:51:20.479Z,0.20
2019-03-06T20:56:24.605Z,1.00
2019-03-06T21:01:28.872Z,0.00
2019-03-06T21:06:35.576Z,0.25
2019-03-06T21:11:38.856Z,0.00
2019-03-06T21:16:42.969Z,0.00
2019-03-06T21:21:47.069Z,0.00
2019-03-06T21:26:51.243Z,0.00
2019-03-06T21:31:55.567Z,0.00
2019-03-06T21:36:59.860Z,0.00
2019-03-06T21:42:04.152Z,0.00
2019-03-06T21:47:08.346Z,-0.25
2019-03-06T21:52:12.573Z,0.00
2019-03-06T21:57:16.792Z,0.00
2019-03-06T22:02:20.951Z,0.00
2019-03-06T22:07:25.135Z,0.00
2019-03-06T22:12:29.280Z,0.00
2019-03-06T22:17:33.937Z,0.00
2019-03-06T22:22:38.246Z,0.00
2019-03-06T22:27:42.656Z,0.00
2019-03-06T22:32:45.830Z,0.00
2019-03-06T22:37:50.453Z,0.00
2019-03-06T22:42:55.029Z,0.00
2019-03-06T22:47:59.848Z,0.00
2019-03-06T22:53:04.283Z,0.00
2019-03-06T22:58:08.811Z,0.00
2019-03-06T23:03:14.236Z,0.00
2019-03-06T23:08:18.711Z,0.00
2019-03-06T23:13:23.096Z,-0.25
2019-03-06T23:18:27.523Z,0.00
2019-03-06T23:23:32.170Z,0.00
2019-03-06T23:28:36.639Z,0.00
2019-03-06T23:33:41.022Z,0.00
2019-03-06T23:38:45.262Z,0.00
2019-03-06T23:43:49.614Z,0.00
2019-03-06T23:48:54.053Z,0.00
2019-03-06T23:53:58.510Z,0.00
2019-03-06T23:59:03.241Z,0.00
